Ayr, North Dakota
Current Conditions -  °F | °C
As of 5:35 PM on Sunday 23 Nov 2014 (Local Time) from KBAC Reporting Station
Light Snow Light Snow  
Wind Chill:   Ceiling: 900
Heat Index: 25°   Visibility: 10mi
Dew Point: 25°   Wind: 26mph
Humidity: 100%   Direction: 320°NW
Pressure: 29.54"   Gusts: 37mph
Location:  47.04°N, 97.49°W
Report Text: KBAC 232335Z AUTO 32023G32KT 10SM -SN OVC009 M04/M04 A2954 RMK AO2 P0001
Loading
Personal Weather Stations






























Interactive Weather Map New forecast layout! Learn more

10-Day Weather Forecast

Advertisements
Track Severe Weather on mobile